^^
Station Historical Data
Daily Summary for November 17, 2017 Units:  Metric    English   Both
« Previous Day
Next Day »
Daily Weekly Monthly Yearly Custom
  High: Low: Average:
Temperature: 29.1 °C 14.2 °C 20.9 °C
Dew Point: -2.7 °C -8.2 °C -4.7 °C
Humidity: 28% 9% 19%
Wind Speed: 22.7km/h 0km/h 4km/h
Wind Gust: 30.6km/h - -
Wind- - SSW
Pressure: 1017.2 hPa 1009.4 hPa -
Precipitation: 0 mm    
Historical Graphs
 
 
Tabular Data for November 17, 2017
Time Temperature Dew Point Pressure Wind Wind Speed Wind Gust Humidity Rainfall Rate (Hourly) solar Conditions
00:26 16.2 °C -3.9 °C 1017.2 hPa Calm     25% 0 mm 0.0 W/m2
00:31 16.1 °C -4.5 °C 1016.8 hPa Calm     24% 0 mm 0.0 W/m2
00:36 15.9 °C -4.1 °C 1016.8 hPa Calm     25% 0 mm 0.0 W/m2
00:41 16.2 °C -3.9 °C 1016.8 hPa Calm     25% 0 mm 0.0 W/m2
00:46 16.4 °C -3.7 °C 1016.8 hPa Calm     25% 0 mm 0.0 W/m2
00:52 16.4 °C -4.2 °C 1016.8 hPa Calm     24% 0 mm 0.0 W/m2
00:57 16.2 °C -3.9 °C 1016.8 hPa Calm     25% 0 mm 0.0 W/m2
01:03 16.3 °C -3.8 °C 1016.8 hPa Calm     25% 0 mm 0.0 W/m2
01:13 16.7 °C -3.4 °C 1016.5 hPa Calm     25% 0 mm 0.0 W/m2
01:18 16.7 °C -4 °C 1016.5 hPa Calm     24% 0 mm 0.0 W/m2
01:23 16.8 °C -3.9 °C 1016.5 hPa Calm     24% 0 mm 0.0 W/m2
01:28 16.7 °C -4 °C 1016.5 hPa Calm     24% 0 mm 0.0 W/m2
01:33 16.7 °C -4 °C 1016.5 hPa Calm     24% 0 mm 0.0 W/m2
01:38 16.7 °C -4 °C 1016.1 hPa Calm     24% 0 mm 0.0 W/m2
01:43 16.8 °C -3.9 °C 1016.1 hPa Calm     24% 0 mm 0.0 W/m2
01:48 16.9 °C -3.8 °C 1016.1 hPa Calm     24% 0 mm 0.0 W/m2
01:53 16.8 °C -3.9 °C 1016.1 hPa Calm     24% 0 mm 0.0 W/m2
01:59 16.7 °C -4 °C 1016.1 hPa Calm     24% 0 mm 0.0 W/m2
02:10 16.6 °C -4.1 °C 1015.8 hPa Calm     24% 0 mm 0.0 W/m2
02:25 15.8 °C -3.7 °C 1015.5 hPa Calm     26% 0 mm 0.0 W/m2
02:30 15.6 °C -3.8 °C 1015.5 hPa Calm     26% 0 mm 0.0 W/m2
02:35 15.5 °C -3.9 °C 1015.5 hPa Calm     26% 0 mm 0.0 W/m2
02:46 15.4 °C -4 °C 1015.5 hPa Calm     26% 0 mm 0.0 W/m2
03:01 15.7 °C -3.8 °C 1015.1 hPa Calm     26% 0 mm 0.0 W/m2
03:06 15.6 °C -3.8 °C 1015.1 hPa Calm     26% 0 mm 0.0 W/m2
03:12 15.3 °C -4.1 °C 1015.1 hPa Calm     26% 0 mm 0.0 W/m2
03:17 15.1 °C -3.8 °C 1015.1 hPa Calm     27% 0 mm 0.0 W/m2
03:22 15.1 °C -3.8 °C 1015.1 hPa Calm     27% 0 mm 0.0 W/m2
03:27 15.2 °C -3.7 °C 1015.1 hPa Calm     27% 0 mm 0.0 W/m2
03:33 15.2 °C -4.2 °C 1015.1 hPa Calm     26% 0 mm 0.0 W/m2
03:43 15.3 °C -4.1 °C 1015.1 hPa Calm     26% 0 mm 0.0 W/m2
03:48 15.3 °C -4.1 °C 1015.1 hPa Calm     26% 0 mm 0.0 W/m2
03:53 15.2 °C -4.2 °C 1015.1 hPa Calm     26% 0 mm 0.0 W/m2
04:04 15.2 °C -4.2 °C 1015.1 hPa Calm     26% 0 mm 0.0 W/m2
04:09 15.3 °C -4.1 °C 1015.1 hPa Calm     26% 0 mm 0.0 W/m2
04:14 15.3 °C -4.1 °C 1014.8 hPa Calm     26% 0 mm 0.0 W/m2
04:20 15.2 °C -4.2 °C 1015.1 hPa Calm     26% 0 mm 0.0 W/m2
04:26 15.1 °C -4.3 °C 1014.8 hPa Calm     26% 0 mm 0.0 W/m2
04:31 15.1 °C -3.8 °C 1014.8 hPa Calm     27% 0 mm 0.0 W/m2
04:36 15 °C -3.9 °C 1014.8 hPa Calm     27% 0 mm 0.0 W/m2
04:46 14.8 °C -4 °C 1014.8 hPa Calm     27% 0 mm 0.0 W/m2
04:52 14.6 °C -4.2 °C 1014.8 hPa Calm     27% 0 mm 0.0 W/m2
04:56 14.5 °C -3.8 °C 1014.8 hPa Calm     28% 0 mm 0.0 W/m2
05:03 14.4 °C -3.9 °C 1014.8 hPa Calm     28% 0 mm 0.0 W/m2
05:08 14.3 °C -4 °C 1014.8 hPa Calm     28% 0 mm 0.0 W/m2
05:11 14.2 °C -4.1 °C 1014.8 hPa Calm     28% 0 mm 0.0 W/m2
05:17 14.2 °C -4.1 °C 1014.8 hPa Calm     28% 0 mm 0.0 W/m2
05:23 14.3 °C -4 °C 1014.8 hPa Calm     28% 0 mm 0.0 W/m2
05:30 14.4 °C -4.4 °C 1014.8 hPa Calm     27% 0 mm 0.0 W/m2
05:35 14.5 °C -4.3 °C 1014.8 hPa Calm     27% 0 mm 0.0 W/m2
05:45 14.5 °C -4.3 °C 1014.8 hPa Calm     27% 0 mm 0.0 W/m2
05:54 14.4 °C -4.4 °C 1014.8 hPa Calm     27% 0 mm 7.0 W/m2
07:41 19.1 °C -3.1 °C 1015.5 hPa SE 1.4 km/h 4.8 km/h 22% 0 mm 320.0 W/m2
07:56 19.9 °C -3.1 °C 1015.5 hPa Calm   16.1 km/h 21% 0 mm 373.0 W/m2
08:11 20.5 °C -3.2 °C 1015.5 hPa SE 1.4 km/h 3.2 km/h 20% 0 mm 422.0 W/m2
08:20 20.9 °C -2.9 °C 1015.5 hPa SE 1.4 km/h 4.8 km/h 20% 0 mm 475.0 W/m2
08:42 21.3 °C -3.3 °C 1015.5 hPa Calm     19% 0 mm 524.0 W/m2
08:51 21.3 °C -3.3 °C 1015.5 hPa SE 3.2 km/h 3.2 km/h 19% 0 mm 575.0 W/m2
09:12 21.8 °C -2.9 °C 1015.5 hPa SE 3.2 km/h 8 km/h 19% 0 mm 640.0 W/m2
09:32 22.3 °C -3.2 °C 1015.5 hPa ESE 3.2 km/h 16.1 km/h 18% 0 mm 700.0 W/m2
09:57 22.7 °C -2.8 °C 1015.5 hPa Calm   16.1 km/h 18% 0 mm 768.0 W/m2
10:18 23.2 °C -3.2 °C 1015.1 hPa Calm   19.3 km/h 17% 0 mm 821.0 W/m2
10:38 23.8 °C -3.5 °C 1014.8 hPa North 9.7 km/h 19.3 km/h 16% 0 mm 853.0 W/m2
11:03 24.2 °C -4.1 °C 1014.4 hPa North 11.1 km/h 20.9 km/h 15% 0 mm 904.0 W/m2
11:35 24.6 °C -3.8 °C 1014.4 hPa North 1.4 km/h 20.9 km/h 15% 0 mm 944.0 W/m2
11:51 25.4 °C -4 °C 1014.1 hPa North 7.9 km/h 22.5 km/h 14% 0 mm 958.0 W/m2
12:06 25.8 °C -3.7 °C 1014.1 hPa Calm   9.7 km/h 14% 0 mm 969.0 W/m2
12:14 25.8 °C -3.7 °C 1013.4 hPa North 19.5 km/h 20.9 km/h 14% 0 mm 977.0 W/m2
12:35 26.1 °C -4.5 °C 1013.4 hPa North 7.9 km/h 12.9 km/h 13% 0 mm 983.0 W/m2
12:44 26.6 °C -4.1 °C 1013.1 hPa North 16.3 km/h 16.3 km/h 13% 0 mm 979.0 W/m2
12:59 26.8 °C -5 °C 1013.1 hPa North 14.3 km/h 17.7 km/h 12% 0 mm 974.0 W/m2
13:07 26.8 °C -5 °C 1013.1 hPa North 14.3 km/h 17.7 km/h 12% 0 mm 974.0 W/m2
13:22 27.1 °C -5.9 °C 1012.8 hPa North 17.7 km/h 20.9 km/h 11% 0 mm 967.0 W/m2
13:35 27.1 °C -5.9 °C 1012.8 hPa North 13 km/h 20.9 km/h 11% 0 mm 953.0 W/m2
13:45 27 °C -6 °C 1012.8 hPa NNW 11.1 km/h 19.3 km/h 11% 0 mm 942.0 W/m2
14:15 27.5 °C -5.6 °C 1012.1 hPa NNE 7.9 km/h 25.7 km/h 11% 0 mm 904.0 W/m2
14:26 27.6 °C -5.5 °C 1011.7 hPa Calm   1.6 km/h 11% 0 mm 882.0 W/m2
14:35 28.3 °C -5 °C 1011.7 hPa North 17.7 km/h 24.1 km/h 11% 0 mm 853.0 W/m2
14:57 27.9 °C -5.3 °C 1011.4 hPa North 1.4 km/h 9.7 km/h 11% 0 mm 819.0 W/m2
15:13 28.6 °C -4.8 °C 1011.1 hPa North 9.7 km/h 9.7 km/h 11% 0 mm 784.0 W/m2
15:35 28.7 °C -5.9 °C 1010.7 hPa North 1.4 km/h 19.3 km/h 10% 0 mm 731.0 W/m2
15:55 28.4 °C -6.2 °C 1010.4 hPa North 9.7 km/h 22.5 km/h 10% 0 mm 671.0 W/m2
16:06 28.7 °C -5.9 °C 1010 hPa Calm   6.4 km/h 10% 0 mm 610.0 W/m2
16:27 28.5 °C -6.1 °C 1010 hPa NNW 9.7 km/h 9.7 km/h 10% 0 mm 550.0 W/m2
16:52 29 °C -7.1 °C 1010 hPa NNW 7.9 km/h 17.7 km/h 9% 0 mm 461.0 W/m2
17:27 28.9 °C -7.2 °C 1009.7 hPa Calm     9% 0 mm 373.0 W/m2
17:46 29 °C -7.1 °C 1009.7 hPa Calm     9% 0 mm 301.0 W/m2
17:58 29.1 °C -7 °C 1009.7 hPa Calm     9% 0 mm 232.0 W/m2
18:18 28.7 °C -7.3 °C 1009.7 hPa Calm     9% 0 mm 144.0 W/m2
18:40 28.7 °C -7.3 °C 1009.4 hPa Calm     9% 0 mm 84.0 W/m2
18:53 28.6 °C -7.4 °C 1009.7 hPa Calm     9% 0 mm 26.0 W/m2
19:01 28.1 °C -7.8 °C 1009.7 hPa Calm     9% 0 mm 14.0 W/m2
19:07 27.9 °C -7.9 °C 1009.7 hPa Calm     9% 0 mm 11.0 W/m2
19:10 27.8 °C -6.6 °C 1009.7 hPa Calm     10% 0 mm 9.0 W/m2
19:20 27.6 °C -6.8 °C 1009.7 hPa Calm     10% 0 mm 5.0 W/m2
19:35 27.2 °C -7.1 °C 1009.7 hPa Calm     10% 0 mm 0.0 W/m2
19:44 26.9 °C -7.3 °C 1010 hPa Calm     10% 0 mm 0.0 W/m2
19:53 26.4 °C -7.7 °C 1010 hPa Calm     10% 0 mm 0.0 W/m2
19:57 26.1 °C -7.9 °C 1010 hPa Calm     10% 0 mm 0.0 W/m2
20:02 25.8 °C -8.1 °C 1010 hPa Calm     10% 0 mm 0.0 W/m2
20:09 25.7 °C -7 °C 1010 hPa NNW 7.9 km/h 12.9 km/h 11% 0 mm 0.0 W/m2
20:12 25.7 °C -8.2 °C 1010 hPa NNW 7.9 km/h 8 km/h 10% 0 mm 0.0 W/m2
20:19 25.6 °C -7.1 °C 1010 hPa NNW 6.4 km/h 8 km/h 11% 0 mm 0.0 W/m2
20:26 25.3 °C -7.3 °C 1010 hPa NNW 3.2 km/h 6.4 km/h 11% 0 mm 0.0 W/m2
20:38 24.8 °C -7.7 °C 1010 hPa Calm     11% 0 mm 0.0 W/m2
20:52 24.3 °C -6.9 °C 1010.4 hPa Calm     12% 0 mm 0.0 W/m2
20:58 23.9 °C -7.2 °C 1010.7 hPa Calm     12% 0 mm 0.0 W/m2
21:14 22.9 °C -8 °C 1011.1 hPa Calm     12% 0 mm 0.0 W/m2
21:23 23.5 °C -3.8 °C 1011.4 hPa South 22.7 km/h 30.6 km/h 16% 0 mm 0.0 W/m2
21:44 22.9 °C -3.5 °C 1011.7 hPa South 17.7 km/h 22.5 km/h 17% 0 mm 0.0 W/m2
21:57 22.5 °C -3.8 °C 1011.7 hPa South 17.7 km/h 20.9 km/h 17% 0 mm 0.0 W/m2
22:03 22.1 °C -3.3 °C 1012.1 hPa SSW 17.7 km/h 24.1 km/h 18% 0 mm 0.0 W/m2
22:17 21.9 °C -2.8 °C 1012.1 hPa SSW 17.7 km/h 22.5 km/h 19% 0 mm 0.0 W/m2
22:23 21.7 °C -2.9 °C 1012.1 hPa SSW 16.3 km/h 20.9 km/h 19% 0 mm 0.0 W/m2
23:04 20.9 °C -2.9 °C 1012.4 hPa SSW 16.3 km/h 19.3 km/h 20% 0 mm 0.0 W/m2
23:19 20.6 °C -3.2 °C 1012.4 hPa SSW 14.3 km/h 19.3 km/h 20% 0 mm 0.0 W/m2
23:29 20.6 °C -3.2 °C 1012.4 hPa SSW 19.5 km/h 19.5 km/h 20% 0 mm 0.0 W/m2
23:34 20.5 °C -3.2 °C 1012.4 hPa SSW 19.5 km/h 24.1 km/h 20% 0 mm 0.0 W/m2
23:39 20.4 °C -3.3 °C 1012.4 hPa SSW 19.5 km/h 22.5 km/h 20% 0 mm 0.0 W/m2
23:44 20.4 °C -2.7 °C 1012.4 hPa SSW 14.3 km/h 20.9 km/h 21% 0 mm 0.0 W/m2
23:49 20.2 °C -2.8 °C 1012.4 hPa SSW 16.3 km/h 22.5 km/h 21% 0 mm 0.0 W/m2
23:54 20.2 °C -2.8 °C 1012.4 hPa SSW 16.3 km/h 24.1 km/h 21% 0 mm 0.0 W/m2
Canyon Roadhouse, Fishriver Canyon, Namibia
Compliments of Weather Underground - 2.25 mb